^^
Station Historical Data
Daily Summary for May 18, 2017 Units:  English    Metric   Both
« Previous Day
Next Day »
Daily Weekly Monthly Yearly Custom
  High: Low: Average:
Temperature: 91.9 °F 68.0 °F 81 °F
Dew Point: 66.5 °F 60.0 °F 63.9 °F
Humidity: 84 % 35 % 58 %
Wind Speed: 9.7 mph 0.0 mph 2.4 mph
Wind Gust: 18.4 mph - -
Wind:- - SW
Pressure: 29.98 in 29.83 in -
Precipitation: 0.00 in    
Historical Graphs
 
 
Tabular Data for May 18, 2017
Time Temperature Dew Point Pressure Wind Wind Speed Wind Gust Humidity Rainfall Rate (Hourly) solar Conditions
00:03 77.7 °F 64.1 °F 29.93 in Calm     63 % 0.00 in 0.0 W/m2 CLR
00:08 77.6 °F 64.0 °F 29.93 in Calm   3.5 mph 63 % 0.00 in 0.0 W/m2 CLR
00:13 77.6 °F 64.5 °F 29.93 in Calm   3.5 mph 64 % 0.00 in 0.0 W/m2 CLR
00:18 77.5 °F 64.4 °F 29.93 in Calm     64 % 0.00 in 0.0 W/m2 CLR
00:23 77.5 °F 64.4 °F 29.93 in SW 1.6 mph 4.6 mph 64 % 0.00 in 0.0 W/m2 CLR
00:28 77.2 °F 64.1 °F 29.93 in Calm   4.6 mph 64 % 0.00 in 0.0 W/m2 CLR
00:33 76.9 °F 64.2 °F 29.93 in Calm   4.6 mph 65 % 0.00 in 0.0 W/m2 CLR
00:38 76.8 °F 64.1 °F 29.93 in Calm     65 % 0.00 in 0.0 W/m2 CLR
00:43 76.7 °F 64.0 °F 29.93 in Calm     65 % 0.00 in 0.0 W/m2 CLR
00:48 76.6 °F 64.4 °F 29.93 in Calm     66 % 0.00 in 0.0 W/m2 CLR
00:53 76.4 °F 64.2 °F 29.93 in Calm     66 % 0.00 in 0.0 W/m2 CLR
00:58 76.5 °F 64.3 °F 29.93 in Calm     66 % 0.00 in 0.0 W/m2 CLR
01:03 76.4 °F 64.2 °F 29.93 in Calm     66 % 0.00 in 0.0 W/m2 CLR
01:08 76.2 °F 64.0 °F 29.92 in Calm   3.5 mph 66 % 0.00 in 0.0 W/m2 CLR
01:13 76.0 °F 64.2 °F 29.92 in Calm   3.5 mph 67 % 0.00 in 0.0 W/m2 CLR
01:18 75.8 °F 64.1 °F 29.92 in Calm     67 % 0.00 in 0.0 W/m2 CLR
01:23 75.5 °F 64.2 °F 29.92 in Calm     68 % 0.00 in 0.0 W/m2 CLR
01:28 75.3 °F 64.0 °F 29.92 in Calm     68 % 0.00 in 0.0 W/m2 CLR
01:33 75.1 °F 64.2 °F 29.92 in Calm     69 % 0.00 in 0.0 W/m2 CLR
01:38 75.0 °F 64.1 °F 29.92 in Calm     69 % 0.00 in 0.0 W/m2 CLR
01:43 74.9 °F 64.0 °F 29.92 in Calm     69 % 0.00 in 0.0 W/m2 CLR
01:48 75.1 °F 64.2 °F 29.92 in Calm     69 % 0.00 in 0.0 W/m2 CLR
01:53 75.2 °F 64.3 °F 29.92 in Calm     69 % 0.00 in 0.0 W/m2 CLR
01:58 75.1 °F 64.2 °F 29.91 in Calm     69 % 0.00 in 0.0 W/m2 CLR
02:03 75.0 °F 64.1 °F 29.91 in Calm     69 % 0.00 in 0.0 W/m2 CLR
02:08 74.8 °F 63.9 °F 29.91 in Calm     69 % 0.00 in 0.0 W/m2 CLR
02:13 74.4 °F 64.0 °F 29.91 in Calm     70 % 0.00 in 0.0 W/m2 CLR
02:18 74.5 °F 64.1 °F 29.91 in Calm     70 % 0.00 in 0.0 W/m2 CLR
02:23 74.6 °F 64.2 °F 29.92 in Calm     70 % 0.00 in 0.0 W/m2 CLR
02:28 74.6 °F 64.2 °F 29.91 in SW 0.5 mph 1.2 mph 70 % 0.00 in 0.0 W/m2 CLR
02:33 74.6 °F 63.8 °F 29.91 in Calm   2.3 mph 69 % 0.00 in 0.0 W/m2 CLR
02:38 74.2 °F 63.8 °F 29.91 in Calm   2.3 mph 70 % 0.00 in 0.0 W/m2 CLR
02:43 73.9 °F 63.5 °F 29.91 in Calm     70 % 0.00 in 0.0 W/m2 CLR
02:48 74.0 °F 64.0 °F 29.91 in Calm     71 % 0.00 in 0.0 W/m2 CLR
02:53 74.1 °F 63.7 °F 29.91 in Calm     70 % 0.00 in 0.0 W/m2 CLR
02:58 74.1 °F 63.7 °F 29.91 in Calm     70 % 0.00 in 0.0 W/m2 CLR
03:03 74.0 °F 63.6 °F 29.91 in Calm     70 % 0.00 in 0.0 W/m2 CLR
03:04 74.0 °F 64.0 °F 29.91 in Calm     71 % 0.00 in 0.0 W/m2 CLR
03:09 73.6 °F 63.6 °F 29.91 in Calm     71 % 0.00 in 0.0 W/m2 CLR
03:14 73.2 °F 63.6 °F 29.91 in Calm     72 % 0.00 in 0.0 W/m2 CLR
03:15 73.2 °F 63.6 °F 29.91 in Calm     72 % 0.00 in 0.0 W/m2 CLR
03:20 73.1 °F 63.5 °F 29.91 in Calm     72 % 0.00 in 0.0 W/m2 CLR
03:26 73.4 °F 63.8 °F 29.91 in Calm     72 % 0.00 in 0.0 W/m2 CLR
03:30 73.6 °F 64.0 °F 29.92 in Calm     72 % 0.00 in 0.0 W/m2 CLR
03:35 73.7 °F 63.7 °F 29.92 in Calm   1.2 mph 71 % 0.00 in 0.0 W/m2 CLR
03:40 73.8 °F 63.8 °F 29.92 in Calm   1.2 mph 71 % 0.00 in 0.0 W/m2 CLR
03:45 73.7 °F 63.7 °F 29.92 in Calm   1.2 mph 71 % 0.00 in 0.0 W/m2 CLR
03:50 73.1 °F 63.5 °F 29.92 in Calm     72 % 0.00 in 0.0 W/m2 CLR
03:55 72.5 °F 63.4 °F 29.92 in Calm     73 % 0.00 in 0.0 W/m2 CLR
04:00 71.9 °F 63.2 °F 29.92 in Calm     74 % 0.00 in 0.0 W/m2 CLR
04:05 71.4 °F 63.4 °F 29.92 in Calm     76 % 0.00 in 0.0 W/m2 CLR
04:10 70.8 °F 63.2 °F 29.92 in Calm     77 % 0.00 in 0.0 W/m2 CLR
04:15 70.3 °F 63.1 °F 29.92 in Calm     78 % 0.00 in 0.0 W/m2 CLR
04:20 70.0 °F 63.2 °F 29.92 in Calm     79 % 0.00 in 0.0 W/m2 CLR
04:25 70.0 °F 63.2 °F 29.92 in Calm     79 % 0.00 in 0.0 W/m2 CLR
04:30 69.9 °F 63.4 °F 29.92 in Calm     80 % 0.00 in 0.0 W/m2 CLR
04:35 69.6 °F 63.2 °F 29.92 in Calm     80 % 0.00 in 0.0 W/m2 CLR
04:41 69.3 °F 63.2 °F 29.93 in Calm     81 % 0.00 in 0.0 W/m2 CLR
04:46 69.2 °F 63.1 °F 29.93 in Calm     81 % 0.00 in 0.0 W/m2 CLR
04:51 69.1 °F 63.0 °F 29.93 in Calm     81 % 0.00 in 0.0 W/m2 CLR
04:56 68.9 °F 63.2 °F 29.93 in Calm     82 % 0.00 in 0.0 W/m2 CLR
05:01 68.6 °F 62.9 °F 29.93 in Calm     82 % 0.00 in 0.0 W/m2 CLR
05:06 68.7 °F 63.0 °F 29.93 in Calm     82 % 0.00 in 0.0 W/m2 CLR
05:11 68.9 °F 63.2 °F 29.93 in Calm     82 % 0.00 in 0.0 W/m2 CLR
05:16 68.8 °F 63.1 °F 29.93 in Calm     82 % 0.00 in 0.0 W/m2 CLR
05:21 68.6 °F 62.9 °F 29.94 in Calm     82 % 0.00 in 0.0 W/m2 CLR
05:22 68.6 °F 62.9 °F 29.94 in Calm     82 % 0.00 in 0.0 W/m2 CLR
05:27 68.5 °F 62.8 °F 29.94 in Calm     82 % 0.00 in 0.0 W/m2 CLR
05:32 68.2 °F 62.8 °F 29.94 in Calm     83 % 0.00 in 0.0 W/m2 CLR
05:37 68.1 °F 62.7 °F 29.94 in Calm     83 % 0.00 in 0.0 W/m2 CLR
05:42 68.1 °F 62.7 °F 29.94 in Calm     83 % 0.00 in 0.0 W/m2 CLR
05:47 68.1 °F 62.7 °F 29.94 in Calm     83 % 0.00 in 0.0 W/m2 CLR
05:52 68.0 °F 63.0 °F 29.94 in Calm     84 % 0.00 in 5.0 W/m2 CLR
05:57 68.2 °F 62.8 °F 29.94 in Calm     83 % 0.00 in 9.0 W/m2 CLR
06:02 68.4 °F 63.0 °F 29.94 in Calm     83 % 0.00 in 11.0 W/m2 CLR
06:05 68.5 °F 63.1 °F 29.94 in Calm     83 % 0.00 in 12.0 W/m2 CLR
06:10 68.7 °F 63.3 °F 29.95 in Calm     83 % 0.00 in 16.0 W/m2 CLR
06:15 68.8 °F 63.1 °F 29.95 in Calm     82 % 0.00 in 21.0 W/m2 CLR
06:20 68.7 °F 63.3 °F 29.95 in Calm     83 % 0.00 in 25.0 W/m2 CLR
06:25 68.7 °F 63.3 °F 29.95 in Calm     83 % 0.00 in 26.0 W/m2 CLR
06:30 68.5 °F 63.1 °F 29.96 in Calm     83 % 0.00 in 26.0 W/m2 CLR
06:35 68.3 °F 62.9 °F 29.96 in Calm     83 % 0.00 in 26.0 W/m2 CLR
06:40 68.3 °F 62.9 °F 29.96 in Calm     83 % 0.00 in 28.0 W/m2 CLR
06:45 68.7 °F 63.3 °F 29.96 in Calm     83 % 0.00 in 28.0 W/m2 CLR
06:50 69.0 °F 63.6 °F 29.96 in Calm     83 % 0.00 in 28.0 W/m2 CLR
06:55 69.3 °F 63.6 °F 29.97 in Calm     82 % 0.00 in 32.0 W/m2 CLR
07:01 69.5 °F 63.8 °F 29.97 in Calm     82 % 0.00 in 33.0 W/m2 CLR
07:06 69.9 °F 64.2 °F 29.97 in Calm     82 % 0.00 in 33.0 W/m2 CLR
07:11 70.2 °F 64.4 °F 29.97 in Calm     82 % 0.00 in 35.0 W/m2 CLR
07:16 70.7 °F 64.6 °F 29.97 in Calm     81 % 0.00 in 35.0 W/m2 CLR
07:21 71.3 °F 65.2 °F 29.97 in Calm     81 % 0.00 in 37.0 W/m2 CLR
07:26 71.9 °F 65.0 °F 29.97 in Calm     79 % 0.00 in 39.0 W/m2 CLR
07:31 72.5 °F 65.2 °F 29.97 in Calm     78 % 0.00 in 39.0 W/m2 CLR
07:36 72.8 °F 65.2 °F 29.97 in SW 1.2 mph 3.5 mph 77 % 0.00 in 40.0 W/m2 CLR
07:41 73.4 °F 65.0 °F 29.97 in Calm   3.5 mph 75 % 0.00 in 42.0 W/m2 CLR
07:46 73.9 °F 65.1 °F 29.97 in Calm   3.5 mph 74 % 0.00 in 44.0 W/m2 CLR
07:51 74.2 °F 65.0 °F 29.98 in WSW 2.8 mph 3.5 mph 73 % 0.00 in 46.0 W/m2 CLR
07:56 74.4 °F 65.2 °F 29.98 in WSW 0.7 mph 3.5 mph 73 % 0.00 in 47.0 W/m2 CLR
08:01 74.7 °F 65.1 °F 29.98 in WSW 2.6 mph 3.5 mph 72 % 0.00 in 47.0 W/m2 CLR
08:06 74.9 °F 65.3 °F 29.98 in West 1.6 mph 5.8 mph 72 % 0.00 in 51.0 W/m2 CLR
08:11 75.0 °F 65.0 °F 29.98 in West 2.1 mph 6.9 mph 71 % 0.00 in 53.0 W/m2 CLR
08:16 75.3 °F 65.2 °F 29.98 in West 2.4 mph 10.4 mph 71 % 0.00 in 54.0 W/m2 CLR
08:21 75.5 °F 65.0 °F 29.98 in SW 3.9 mph 10.4 mph 70 % 0.00 in 54.0 W/m2 CLR
08:26 75.5 °F 65.0 °F 29.98 in West 3.1 mph 10.4 mph 70 % 0.00 in 58.0 W/m2 CLR
08:31 75.8 °F 65.3 °F 29.98 in West 1.9 mph 10.4 mph 70 % 0.00 in 58.0 W/m2 CLR
08:36 75.9 °F 65.0 °F 29.97 in WSW 7.4 mph 12.7 mph 69 % 0.00 in 60.0 W/m2 CLR
08:41 76.3 °F 65.4 °F 29.98 in West 5.8 mph 12.7 mph 69 % 0.00 in 62.0 W/m2 CLR
08:46 76.6 °F 65.2 °F 29.98 in SW 2.4 mph 12.7 mph 68 % 0.00 in 62.0 W/m2 CLR
08:52 76.9 °F 65.5 °F 29.98 in SW 1.7 mph 11.5 mph 68 % 0.00 in 62.0 W/m2 CLR
08:57 77.2 °F 65.4 °F 29.98 in SSW 2.8 mph 12.7 mph 67 % 0.00 in 65.0 W/m2 CLR
09:02 77.6 °F 65.8 °F 29.98 in SW 3.9 mph 12.7 mph 67 % 0.00 in 547.0 W/m2 CLR
09:07 77.8 °F 65.5 °F 29.98 in WSW 2.1 mph 10.4 mph 66 % 0.00 in 571.0 W/m2 CLR
09:12 78.0 °F 65.3 °F 29.97 in WSW 3.4 mph 10.4 mph 65 % 0.00 in 594.0 W/m2 CLR
09:17 78.4 °F 65.7 °F 29.97 in WSW 2.5 mph 9.2 mph 65 % 0.00 in 613.0 W/m2 CLR
09:22 78.5 °F 65.3 °F 29.97 in SW 2.7 mph 9.2 mph 64 % 0.00 in 656.0 W/m2 CLR
09:27 78.8 °F 65.6 °F 29.97 in WSW 3.8 mph 11.5 mph 64 % 0.00 in 468.0 W/m2 CLR
09:32 79.1 °F 65.9 °F 29.97 in SW 1.7 mph 11.5 mph 64 % 0.00 in 656.0 W/m2 CLR
09:37 79.5 °F 66.3 °F 29.97 in SW 1.9 mph 8.1 mph 64 % 0.00 in 642.0 W/m2 CLR
09:42 80.0 °F 65.8 °F 29.97 in West 0.1 mph 9.2 mph 62 % 0.00 in 682.0 W/m2 CLR
09:47 80.4 °F 66.2 °F 29.96 in West 3.1 mph 9.2 mph 62 % 0.00 in 677.0 W/m2 CLR
09:52 80.9 °F 66.2 °F 29.96 in WSW 2.6 mph 9.2 mph 61 % 0.00 in 715.0 W/m2 CLR
09:57 81.3 °F 65.6 °F 29.96 in SW 4.5 mph 9.2 mph 59 % 0.00 in 722.0 W/m2 CLR
10:02 81.5 °F 65.3 °F 29.96 in SW 5.4 mph 11.5 mph 58 % 0.00 in 666.0 W/m2 CLR
10:07 82.2 °F 66.0 °F 29.96 in WSW 5.8 mph 11.5 mph 58 % 0.00 in 657.0 W/m2 CLR
10:12 82.0 °F 65.3 °F 29.96 in West 4.3 mph 11.5 mph 57 % 0.00 in 754.0 W/m2 CLR
10:17 82.3 °F 65.5 °F 29.96 in WSW 3.9 mph 11.5 mph 57 % 0.00 in 770.0 W/m2 CLR
10:22 82.6 °F 65.8 °F 29.95 in WSW 2.1 mph 11.5 mph 57 % 0.00 in 788.0 W/m2 CLR
10:27 83.0 °F 65.7 °F 29.95 in WSW 4.7 mph 9.2 mph 56 % 0.00 in 796.0 W/m2 CLR
10:32 83.4 °F 64.5 °F 29.95 in WSW 4.0 mph 10.4 mph 53 % 0.00 in 802.0 W/m2 CLR
10:37 83.8 °F 64.8 °F 29.95 in West 5.7 mph 10.4 mph 53 % 0.00 in 768.0 W/m2 CLR
10:42 84.0 °F 65.0 °F 29.95 in WSW 3.9 mph 10.4 mph 53 % 0.00 in 821.0 W/m2 CLR
10:47 84.2 °F 65.2 °F 29.95 in SW 3.6 mph 9.2 mph 53 % 0.00 in 830.0 W/m2 CLR
10:52 84.7 °F 65.1 °F 29.95 in WSW 4.5 mph 9.2 mph 52 % 0.00 in 835.0 W/m2 CLR
10:57 85.0 °F 64.8 °F 29.94 in WSW 3.4 mph 9.2 mph 51 % 0.00 in 844.0 W/m2 CLR
11:02 85.4 °F 65.2 °F 29.94 in WNW 2.0 mph 9.2 mph 51 % 0.00 in 851.0 W/m2 CLR
11:07 85.8 °F 62.6 °F 29.94 in West 4.3 mph 9.2 mph 46 % 0.00 in 865.0 W/m2 CLR
11:12 86.1 °F 63.5 °F 29.94 in WSW 1.8 mph 9.2 mph 47 % 0.00 in 874.0 W/m2 CLR
11:17 86.3 °F 62.5 °F 29.94 in SW 7.2 mph 11.5 mph 45 % 0.00 in 882.0 W/m2 CLR
11:22 86.6 °F 61.4 °F 29.93 in West 3.9 mph 11.5 mph 43 % 0.00 in 889.0 W/m2 CLR
11:27 86.5 °F 62.0 °F 29.93 in WNW 4.2 mph 11.5 mph 44 % 0.00 in 898.0 W/m2 CLR
11:32 87.4 °F 62.8 °F 29.93 in SW 2.1 mph 11.5 mph 44 % 0.00 in 898.0 W/m2 CLR
11:37 87.3 °F 62.1 °F 29.93 in West 6.1 mph 12.7 mph 43 % 0.00 in 918.0 W/m2 CLR
11:42 87.2 °F 61.3 °F 29.93 in WSW 8.0 mph 12.7 mph 42 % 0.00 in 921.0 W/m2 CLR
11:47 87.4 °F 62.2 °F 29.93 in WSW 7.4 mph 12.7 mph 43 % 0.00 in 926.0 W/m2 CLR
11:52 87.9 °F 62.6 °F 29.92 in SSW 2.1 mph 12.7 mph 43 % 0.00 in 932.0 W/m2 CLR
11:57 88.0 °F 61.3 °F 29.92 in SW 5.3 mph 12.7 mph 41 % 0.00 in 937.0 W/m2 CLR
12:02 88.1 °F 62.1 °F 29.93 in SSW 4.0 mph 12.7 mph 42 % 0.00 in 930.0 W/m2 CLR
12:04 88.3 °F 62.3 °F 29.93 in WNW 6.8 mph 13.8 mph 42 % 0.00 in 926.0 W/m2 CLR
12:09 87.9 °F 61.9 °F 29.92 in WSW 5.8 mph 13.8 mph 42 % 0.00 in 947.0 W/m2 CLR
12:14 88.1 °F 62.8 °F 29.93 in SSE 9.7 mph 13.8 mph 43 % 0.00 in 965.0 W/m2 CLR
12:19 87.6 °F 62.3 °F 29.92 in West 6.7 mph 13.8 mph 43 % 0.00 in 374.0 W/m2 CLR
12:24 88.2 °F 63.5 °F 29.92 in SW 6.1 mph 13.8 mph 44 % 0.00 in 954.0 W/m2 CLR
12:29 88.6 °F 64.5 °F 29.92 in WSW 1.8 mph 11.5 mph 45 % 0.00 in 951.0 W/m2 CLR
12:34 89.0 °F 64.3 °F 29.92 in West 0.2 mph 11.5 mph 44 % 0.00 in 942.0 W/m2 CLR
12:39 89.2 °F 63.8 °F 29.92 in WSW 7.9 mph 13.8 mph 43 % 0.00 in 956.0 W/m2 CLR
12:44 88.2 °F 63.5 °F 29.92 in WSW 7.7 mph 16.1 mph 44 % 0.00 in 953.0 W/m2 CLR
12:49 88.5 °F 64.4 °F 29.92 in SW 4.0 mph 16.1 mph 45 % 0.00 in 967.0 W/m2 CLR
12:54 88.7 °F 64.0 °F 29.92 in WSW 7.0 mph 16.1 mph 44 % 0.00 in 1000.0 W/m2 CLR
12:59 88.7 °F 64.0 °F 29.91 in WSW 3.8 mph 15.0 mph 44 % 0.00 in 967.0 W/m2 CLR
13:04 89.0 °F 62.9 °F 29.91 in West 7.5 mph 15.0 mph 42 % 0.00 in 993.0 W/m2 CLR
13:05 89.0 °F 62.9 °F 29.91 in WSW 5.0 mph 15.0 mph 42 % 0.00 in 981.0 W/m2 CLR
13:10 89.1 °F 63.0 °F 29.91 in WSW 5.5 mph 15.0 mph 42 % 0.00 in 976.0 W/m2 CLR
13:15 89.1 °F 63.0 °F 29.91 in West 5.1 mph 16.1 mph 42 % 0.00 in 949.0 W/m2 CLR
13:20 89.8 °F 63.6 °F 29.91 in SSW 6.3 mph 17.3 mph 42 % 0.00 in 1013.0 W/m2 CLR
13:25 90.0 °F 63.8 °F 29.91 in SSW 7.4 mph 17.3 mph 42 % 0.00 in 1002.0 W/m2 CLR
13:30 89.7 °F 62.2 °F 29.91 in WSW 5.4 mph 15.0 mph 40 % 0.00 in 981.0 W/m2 CLR
13:35 89.7 °F 62.2 °F 29.91 in WSW 4.5 mph 15.0 mph 40 % 0.00 in 942.0 W/m2 CLR
13:40 89.9 °F 62.3 °F 29.90 in SSW 1.7 mph 13.8 mph 40 % 0.00 in 1009.0 W/m2 CLR
13:45 90.2 °F 63.3 °F 29.90 in West 3.3 mph 12.7 mph 41 % 0.00 in 969.0 W/m2 CLR
13:50 90.0 °F 63.1 °F 29.90 in SW 6.9 mph 15.0 mph 41 % 0.00 in 944.0 W/m2 CLR
13:56 89.7 °F 62.9 °F 29.90 in SSW 6.1 mph 18.4 mph 41 % 0.00 in 944.0 W/m2 CLR
14:01 89.9 °F 62.3 °F 29.90 in SW 4.4 mph 18.4 mph 40 % 0.00 in 918.0 W/m2 CLR
14:06 90.2 °F 63.3 °F 29.90 in West 4.2 mph 15.0 mph 41 % 0.00 in 921.0 W/m2 CLR
14:11 90.5 °F 62.2 °F 29.90 in WSW 9.2 mph 17.3 mph 39 % 0.00 in 935.0 W/m2 CLR
14:16 90.2 °F 62.6 °F 29.90 in SW 3.7 mph 17.3 mph 40 % 0.00 in 942.0 W/m2 CLR
14:21 89.9 °F 63.0 °F 29.90 in West 5.2 mph 13.8 mph 41 % 0.00 in 907.0 W/m2 CLR
14:26 90.3 °F 62.7 °F 29.89 in SW 4.5 mph 18.4 mph 40 % 0.00 in 896.0 W/m2 CLR
14:31 90.5 °F 62.9 °F 29.89 in WSW 3.9 mph 18.4 mph 40 % 0.00 in 911.0 W/m2 CLR
14:36 90.5 °F 62.2 °F 29.89 in WSW 6.6 mph 15.0 mph 39 % 0.00 in 914.0 W/m2 CLR
14:41 89.8 °F 62.3 °F 29.88 in West 2.3 mph 15.0 mph 40 % 0.00 in 893.0 W/m2 CLR
14:46 90.4 °F 63.5 °F 29.88 in WSW 5.5 mph 15.0 mph 41 % 0.00 in 861.0 W/m2 CLR
14:51 90.9 °F 62.5 °F 29.88 in SW 2.7 mph 15.0 mph 39 % 0.00 in 860.0 W/m2 CLR
14:56 91.1 °F 62.7 °F 29.88 in WSW 4.6 mph 17.3 mph 39 % 0.00 in 849.0 W/m2 CLR
15:01 91.1 °F 62.7 °F 29.88 in South 7.7 mph 17.3 mph 39 % 0.00 in 854.0 W/m2 CLR
15:06 91.4 °F 63.0 °F 29.87 in West 3.9 mph 15.0 mph 39 % 0.00 in 826.0 W/m2 CLR
15:11 91.6 °F 62.4 °F 29.87 in SW 5.1 mph 15.0 mph 38 % 0.00 in 816.0 W/m2 CLR
15:16 91.6 °F 62.4 °F 29.87 in SW 5.9 mph 16.1 mph 38 % 0.00 in 812.0 W/m2 CLR
15:21 91.8 °F 63.3 °F 29.87 in SSW 7.2 mph 16.1 mph 39 % 0.00 in 796.0 W/m2 CLR
15:26 91.3 °F 62.1 °F 29.86 in SW 2.7 mph 13.8 mph 38 % 0.00 in 802.0 W/m2 CLR
15:31 91.2 °F 62.0 °F 29.86 in South 7.8 mph 13.8 mph 38 % 0.00 in 773.0 W/m2 CLR
15:36 91.2 °F 62.0 °F 29.86 in South 1.4 mph 15.0 mph 38 % 0.00 in 770.0 W/m2 CLR
15:41 91.3 °F 60.6 °F 29.86 in West 7.3 mph 16.1 mph 36 % 0.00 in 759.0 W/m2 CLR
15:46 91.5 °F 60.0 °F 29.86 in SW 8.3 mph 16.1 mph 35 % 0.00 in 758.0 W/m2 CLR
15:51 91.4 °F 60.7 °F 29.86 in WSW 3.2 mph 16.1 mph 36 % 0.00 in 733.0 W/m2 CLR
15:56 91.1 °F 61.2 °F 29.85 in SW 7.1 mph 15.0 mph 37 % 0.00 in 728.0 W/m2 CLR
16:01 90.8 °F 61.7 °F 29.85 in SSW 2.2 mph 12.7 mph 38 % 0.00 in 738.0 W/m2 FEW
16:06 91.5 °F 61.6 °F 29.85 in West 2.9 mph 12.7 mph 37 % 0.00 in 705.0 W/m2 FEW
16:11 91.8 °F 61.0 °F 29.85 in West 4.6 mph 11.5 mph 36 % 0.00 in 666.0 W/m2 FEW
16:16 91.9 °F 61.9 °F 29.85 in SSW 2.2 mph 13.8 mph 37 % 0.00 in 656.0 W/m2 FEW
16:21 91.7 °F 61.0 °F 29.85 in WSW 4.0 mph 18.4 mph 36 % 0.00 in 645.0 W/m2 FEW
16:26 91.4 °F 61.5 °F 29.85 in SW 6.8 mph 18.4 mph 37 % 0.00 in 621.0 W/m2 FEW
16:31 91.2 °F 61.3 °F 29.85 in WSW 3.6 mph 16.1 mph 37 % 0.00 in 617.0 W/m2 FEW
16:36 91.0 °F 61.9 °F 29.85 in West 5.0 mph 16.1 mph 38 % 0.00 in 615.0 W/m2 FEW
16:41 91.3 °F 62.9 °F 29.85 in South 3.1 mph 13.8 mph 39 % 0.00 in 153.0 W/m2 FEW
16:47 90.8 °F 60.9 °F 29.85 in SSW 3.8 mph 13.8 mph 37 % 0.00 in 564.0 W/m2 FEW
16:52 90.6 °F 61.5 °F 29.85 in SSW 4.7 mph 13.8 mph 38 % 0.00 in 555.0 W/m2 FEW
16:57 90.6 °F 62.3 °F 29.85 in SSE 3.2 mph 13.8 mph 39 % 0.00 in 548.0 W/m2 FEW
17:02 90.7 °F 63.1 °F 29.84 in SW 2.7 mph 12.7 mph 40 % 0.00 in 522.0 W/m2 CLR
17:07 91.0 °F 63.3 °F 29.84 in South 2.8 mph 12.7 mph 40 % 0.00 in 492.0 W/m2 CLR
17:12 90.8 °F 63.1 °F 29.85 in SSW 2.2 mph 11.5 mph 40 % 0.00 in 125.0 W/m2 CLR
17:17 90.8 °F 63.1 °F 29.85 in WSW 5.6 mph 11.5 mph 40 % 0.00 in 457.0 W/m2 CLR
17:22 90.6 °F 62.3 °F 29.84 in SW 0.5 mph 18.4 mph 39 % 0.00 in 450.0 W/m2 CLR
17:27 90.5 °F 62.2 °F 29.84 in SW 0.3 mph 18.4 mph 39 % 0.00 in 163.0 W/m2 CLR
17:32 90.3 °F 62.7 °F 29.84 in SW 3.3 mph 11.5 mph 40 % 0.00 in 418.0 W/m2 CLR
17:37 90.7 °F 61.6 °F 29.84 in SW 4.2 mph 12.7 mph 38 % 0.00 in 408.0 W/m2 CLR
17:42 90.6 °F 61.5 °F 29.84 in SW 5.1 mph 15.0 mph 38 % 0.00 in 360.0 W/m2 CLR
17:47 90.3 °F 62.0 °F 29.83 in South 5.3 mph 15.0 mph 39 % 0.00 in 360.0 W/m2 CLR
17:52 90.1 °F 62.5 °F 29.83 in WSW 5.4 mph 15.0 mph 40 % 0.00 in 306.0 W/m2 CLR
17:57 90.1 °F 62.5 °F 29.83 in SSW 3.8 mph 11.5 mph 40 % 0.00 in 338.0 W/m2 CLR
18:02 90.1 °F 63.2 °F 29.83 in WSW 1.9 mph 11.5 mph 41 % 0.00 in 322.0 W/m2 FEW
18:07 90.1 °F 63.2 °F 29.83 in SW 1.6 mph 11.5 mph 41 % 0.00 in 297.0 W/m2 FEW
18:12 89.9 °F 63.0 °F 29.83 in SW 6.6 mph 15.0 mph 41 % 0.00 in 213.0 W/m2 FEW
18:17 89.5 °F 62.7 °F 29.83 in SSW 6.8 mph 15.0 mph 41 % 0.00 in 234.0 W/m2 FEW
18:22 89.0 °F 62.2 °F 29.83 in SSW 6.3 mph 15.0 mph 41 % 0.00 in 258.0 W/m2 FEW
18:27 88.9 °F 62.8 °F 29.83 in SSW 3.3 mph 13.8 mph 42 % 0.00 in 260.0 W/m2 FEW
18:32 88.9 °F 62.8 °F 29.83 in SW 3.3 mph 11.5 mph 42 % 0.00 in 248.0 W/m2 FEW
18:37 88.6 °F 63.2 °F 29.83 in SSW 3.3 mph 12.7 mph 43 % 0.00 in 221.0 W/m2 FEW
18:42 88.6 °F 63.2 °F 29.83 in South 2.4 mph 12.7 mph 43 % 0.00 in 190.0 W/m2 FEW
18:47 88.5 °F 63.1 °F 29.84 in SSW 3.6 mph 9.2 mph 43 % 0.00 in 125.0 W/m2 FEW
18:52 88.2 °F 63.5 °F 29.84 in SW 0.1 mph 9.2 mph 44 % 0.00 in 151.0 W/m2 FEW
18:57 88.1 °F 63.4 °F 29.84 in WSW 4.6 mph 9.2 mph 44 % 0.00 in 148.0 W/m2 FEW
19:02 87.9 °F 63.3 °F 29.84 in SW 0.5 mph 9.2 mph 44 % 0.00 in 134.0 W/m2 CLR
19:07 87.7 °F 63.1 °F 29.84 in WSW 3.6 mph 9.2 mph 44 % 0.00 in 120.0 W/m2 CLR
19:12 87.7 °F 63.7 °F 29.84 in Calm   11.5 mph 45 % 0.00 in 104.0 W/m2 CLR
19:17 87.6 °F 63.6 °F 29.84 in SW 2.2 mph 11.5 mph 45 % 0.00 in 84.0 W/m2 CLR
19:22 87.4 °F 62.8 °F 29.84 in SSW 2.2 mph 8.1 mph 44 % 0.00 in 47.0 W/m2 CLR
19:27 87.2 °F 63.3 °F 29.84 in SSW 0.5 mph 8.1 mph 45 % 0.00 in 33.0 W/m2 CLR
19:32 86.9 °F 63.6 °F 29.84 in SSW 0.1 mph 6.9 mph 46 % 0.00 in 23.0 W/m2 CLR
19:37 86.6 °F 63.4 °F 29.84 in Calm   4.6 mph 46 % 0.00 in 16.0 W/m2 CLR
19:42 86.3 °F 63.7 °F 29.84 in Calm   3.5 mph 47 % 0.00 in 11.0 W/m2 CLR
19:47 86.1 °F 63.5 °F 29.84 in Calm     47 % 0.00 in 9.0 W/m2 CLR
19:52 85.9 °F 63.3 °F 29.84 in SSW 0.9 mph 4.6 mph 47 % 0.00 in 9.0 W/m2 CLR
19:57 85.6 °F 63.7 °F 29.84 in SW 1.2 mph 4.6 mph 48 % 0.00 in 7.0 W/m2 CLR
20:02 85.4 °F 64.1 °F 29.84 in Calm   4.6 mph 49 % 0.00 in 5.0 W/m2 CLR
20:07 85.1 °F 64.4 °F 29.85 in Calm   3.5 mph 50 % 0.00 in 0.0 W/m2 CLR
20:13 84.9 °F 64.2 °F 29.85 in SSW 3.2 mph 8.1 mph 50 % 0.00 in 0.0 W/m2 CLR
20:18 84.7 °F 64.6 °F 29.85 in SSW 2.5 mph 8.1 mph 51 % 0.00 in 0.0 W/m2 CLR
20:23 84.4 °F 65.4 °F 29.85 in South 6.5 mph 12.7 mph 53 % 0.00 in 0.0 W/m2 CLR
20:28 84.1 °F 65.1 °F 29.85 in SW 3.7 mph 12.7 mph 53 % 0.00 in 0.0 W/m2 CLR
20:33 83.7 °F 65.3 °F 29.85 in SW 2.4 mph 12.7 mph 54 % 0.00 in 0.0 W/m2 CLR
20:38 83.4 °F 65.5 °F 29.85 in SW 4.8 mph 11.5 mph 55 % 0.00 in 0.0 W/m2 CLR
20:43 83.1 °F 65.3 °F 29.86 in SW 5.1 mph 11.5 mph 55 % 0.00 in 0.0 W/m2 CLR
20:48 83.0 °F 65.7 °F 29.86 in SW 5.3 mph 10.4 mph 56 % 0.00 in 0.0 W/m2 CLR
20:53 82.7 °F 65.4 °F 29.86 in SW 0.8 mph 11.5 mph 56 % 0.00 in 0.0 W/m2 CLR
20:58 82.5 °F 65.7 °F 29.86 in South 3.4 mph 13.8 mph 57 % 0.00 in 0.0 W/m2 CLR
21:03 82.2 °F 65.4 °F 29.86 in South 5.8 mph 13.8 mph 57 % 0.00 in 0.0 W/m2 CLR
21:08 82.0 °F 65.8 °F 29.86 in SSW 4.8 mph 11.5 mph 58 % 0.00 in 0.0 W/m2 CLR
21:13 81.8 °F 65.6 °F 29.86 in SW 4.8 mph 11.5 mph 58 % 0.00 in 0.0 W/m2 CLR
21:18 81.4 °F 65.7 °F 29.86 in SW 3.4 mph 8.1 mph 59 % 0.00 in 0.0 W/m2 CLR
21:23 81.3 °F 65.6 °F 29.87 in SSW 5.3 mph 10.4 mph 59 % 0.00 in 0.0 W/m2 CLR
21:28 81.0 °F 65.8 °F 29.87 in SSW 3.0 mph 10.4 mph 60 % 0.00 in 0.0 W/m2 CLR
21:33 80.8 °F 65.6 °F 29.88 in SSW 4.4 mph 9.2 mph 60 % 0.00 in 0.0 W/m2 CLR
21:38 80.5 °F 65.8 °F 29.88 in SW 4.0 mph 9.2 mph 61 % 0.00 in 0.0 W/m2 CLR
21:43 80.4 °F 65.7 °F 29.88 in SSW 4.3 mph 10.4 mph 61 % 0.00 in 0.0 W/m2 CLR
21:48 80.3 °F 65.6 °F 29.87 in SW 2.2 mph 11.5 mph 61 % 0.00 in 0.0 W/m2 CLR
21:53 80.0 °F 65.8 °F 29.87 in SSW 1.8 mph 11.5 mph 62 % 0.00 in 0.0 W/m2 CLR
21:58 79.8 °F 65.6 °F 29.87 in Calm   8.1 mph 62 % 0.00 in 0.0 W/m2 CLR
22:03 79.6 °F 65.9 °F 29.88 in Calm   5.8 mph 63 % 0.00 in 0.0 W/m2 CLR
22:08 79.5 °F 65.8 °F 29.88 in SW 0.8 mph 3.5 mph 63 % 0.00 in 0.0 W/m2 CLR
22:13 79.5 °F 65.8 °F 29.87 in SW 1.8 mph 9.2 mph 63 % 0.00 in 0.0 W/m2 CLR
22:18 79.5 °F 65.8 °F 29.87 in SW 0.9 mph 9.2 mph 63 % 0.00 in 0.0 W/m2 CLR
22:23 79.6 °F 65.9 °F 29.87 in SW 4.6 mph 9.2 mph 63 % 0.00 in 0.0 W/m2 CLR
22:28 79.6 °F 65.9 °F 29.87 in West 3.2 mph 9.2 mph 63 % 0.00 in 0.0 W/m2 CLR
22:33 79.5 °F 65.8 °F 29.87 in Calm   9.2 mph 63 % 0.00 in 0.0 W/m2 CLR
22:39 79.4 °F 65.7 °F 29.87 in SSW 3.2 mph 8.1 mph 63 % 0.00 in 0.0 W/m2 CLR
22:44 79.4 °F 65.7 °F 29.88 in Calm   8.1 mph 63 % 0.00 in 0.0 W/m2 CLR
22:49 79.4 °F 65.7 °F 29.88 in SSW 2.0 mph 8.1 mph 63 % 0.00 in 0.0 W/m2 CLR
22:54 79.2 °F 66.0 °F 29.88 in SSW 0.5 mph 8.1 mph 64 % 0.00 in 0.0 W/m2 CLR
22:59 79.1 °F 65.9 °F 29.88 in SW 0.1 mph 5.8 mph 64 % 0.00 in 0.0 W/m2 CLR
23:04 78.9 °F 65.7 °F 29.88 in Calm   4.6 mph 64 % 0.00 in 0.0 W/m2 CLR
23:09 78.7 °F 65.9 °F 29.89 in Calm   3.5 mph 65 % 0.00 in 0.0 W/m2 CLR
23:14 78.4 °F 65.7 °F 29.89 in Calm   3.5 mph 65 % 0.00 in 0.0 W/m2 CLR
23:19 78.3 °F 66.0 °F 29.89 in Calm   4.6 mph 66 % 0.00 in 0.0 W/m2 CLR
23:24 78.3 °F 66.0 °F 29.89 in WSW 2.0 mph 9.2 mph 66 % 0.00 in 0.0 W/m2 CLR
23:29 78.3 °F 66.0 °F 29.89 in SW 1.3 mph 9.2 mph 66 % 0.00 in 0.0 W/m2 CLR
23:34 78.3 °F 66.0 °F 29.89 in Calm   10.4 mph 66 % 0.00 in 0.0 W/m2 CLR
23:39 78.3 °F 66.0 °F 29.90 in SW 1.1 mph 10.4 mph 66 % 0.00 in 0.0 W/m2 CLR
23:44 78.1 °F 66.2 °F 29.90 in SSW 0.1 mph 6.9 mph 67 % 0.00 in 0.0 W/m2 CLR
23:49 78.0 °F 66.2 °F 29.89 in SW 0.9 mph 6.9 mph 67 % 0.00 in 0.0 W/m2 CLR
23:51 78.0 °F 66.2 °F 29.90 in SW 0.2 mph 6.9 mph 67 % 0.00 in 0.0 W/m2 CLR
23:56 77.9 °F 66.5 °F 29.89 in Calm   5.8 mph 68 % 0.00 in 0.0 W/m2 CLR
Air Products Campus Weather
Compliments of Weather Underground - 3.5 mb